Time;durP1;ratioP1;P1;durP2;ratioP2;P2;SDS_P1;SDS_P2;PMS_P1;PMS_P2;Temp;Humidity;BMP_temperature;BMP_pressure;BME280_temperature;BME280_humidity;BME280_pressure;Samples;Min_cycle;Max_cycle;Signal;HPM_P1;HPM_P2
2023/10/12 00:01:25;;;;;;;;;10.33;10.33;;;;;22.30;46.11;100462.81;5099311;27;45305;-75
2023/10/12 00:03:58;;;;;;;;;9.00;8.00;;;;;22.66;46.08;100512.69;5098812;27;45294;-76
2023/10/12 00:06:30;;;;;;;;;10.67;9.33;;;;;22.68;45.51;100497.56;5100008;27;45489;-76
2023/10/12 00:08:56;;;;;;;;;8.67;8.00;;;;;22.77;45.29;100508.91;5099602;27;45521;-75
2023/10/12 00:11:21;;;;;;;;;7.67;7.67;;;;;22.72;44.51;100489.50;5099234;27;45584;-76
2023/10/12 00:13:51;;;;;;;;;8.00;6.33;;;;;22.91;44.81;100516.59;5099951;27;45449;-76
2023/10/12 00:16:18;;;;;;;;;9.33;8.00;;;;;22.65;44.76;100463.91;5100112;27;45478;-75
2023/10/12 00:18:46;;;;;;;;;8.33;7.33;;;;;22.89;45.36;100498.91;5099616;27;46079;-74
2023/10/12 00:21:18;;;;;;;;;9.67;7.67;;;;;22.84;45.83;100507.88;5099200;27;45485;-76
2023/10/12 00:23:45;;;;;;;;;10.00;8.67;;;;;22.78;45.88;100508.00;5099221;27;45579;-76
2023/10/12 00:26:11;;;;;;;;;7.67;7.67;;;;;22.74;46.54;100511.66;5099004;27;45772;-75
2023/10/12 00:28:44;;;;;;;;;9.67;8.00;;;;;22.61;46.27;100515.47;5099526;27;46263;-76
2023/10/12 00:31:29;;;;;;;;;10.33;8.00;;;;;22.58;46.93;100511.09;5100127;27;45325;-76
2023/10/12 00:33:57;;;;;;;;;9.00;7.67;;;;;22.57;46.25;100506.66;5099553;27;45386;-76
2023/10/12 00:36:24;;;;;;;;;11.00;9.00;;;;;22.57;46.71;100519.09;5099679;27;45468;-76
2023/10/12 00:38:52;;;;;;;;;7.00;7.00;;;;;22.57;46.63;100513.78;5098899;27;45436;-76
2023/10/12 00:41:18;;;;;;;;;8.00;7.00;;;;;22.55;46.50;100520.91;5098982;27;45407;-76
2023/10/12 00:43:59;;;;;;;;;7.67;7.33;;;;;22.47;46.55;100512.22;5099677;27;45589;-76
2023/10/12 00:51:37;;;;;;;;;10.33;9.00;;;;;22.35;47.24;100508.00;5098996;27;45388;-76
2023/10/12 00:54:04;;;;;;;;;8.33;8.00;;;;;22.14;47.02;100486.16;5098626;27;45421;-76
2023/10/12 00:56:30;;;;;;;;;10.33;8.00;;;;;22.31;47.05;100508.97;5099076;27;45472;-76
2023/10/12 00:58:57;;;;;;;;;9.00;9.00;;;;;22.34;47.12;100512.44;5097581;27;45482;-76
2023/10/12 01:01:23;;;;;;;;;9.00;8.00;;;;;22.34;47.06;100509.78;5098839;27;45610;-76
2023/10/12 01:03:50;;;;;;;;;9.33;7.00;;;;;22.17;46.93;100478.13;5098509;27;45384;-76
2023/10/12 01:06:49;;;;;;;;;11.33;8.67;;;;;22.28;46.97;100515.19;5099604;27;45499;-76
2023/10/12 01:09:18;;;;;;;;;7.33;7.00;;;;;22.22;46.80;100510.84;5097627;27;46033;-76
2023/10/12 01:11:52;;;;;;;;;8.67;8.67;;;;;22.21;47.57;100513.53;5098634;27;45343;-76
2023/10/12 01:14:18;;;;;;;;;10.00;8.33;;;;;22.20;47.09;100506.44;5098565;27;45392;-76
2023/10/12 01:19:22;;;;;;;;;9.00;8.00;;;;;22.13;47.44;100486.22;5098847;27;46025;-76
2023/10/12 01:22:05;;;;;;;;;12.33;9.00;;;;;22.04;46.97;100476.59;5067849;27;45561;-76
2023/10/12 01:24:30;;;;;;;;;8.33;7.33;;;;;22.27;46.55;100504.59;5079361;27;45526;-76
2023/10/12 01:26:57;;;;;;;;;9.67;8.33;;;;;22.30;46.08;100493.88;5099182;27;45457;-75
2023/10/12 01:29:25;;;;;;;;;8.33;7.67;;;;;22.32;45.94;100500.06;5098602;27;45479;-75
2023/10/12 01:34:44;;;;;;;;;9.33;8.00;;;;;22.28;46.28;100499.22;5096199;27;46064;-75
2023/10/12 01:37:22;;;;;;;;;11.33;9.00;;;;;22.23;46.29;100478.00;5097946;27;45559;-75
2023/10/12 01:40:09;;;;;;;;;9.00;8.33;;;;;22.40;45.67;100498.13;5098042;27;46262;-76
2023/10/12 01:45:16;;;;;;;;;10.33;8.00;;;;;22.32;45.89;100471.69;5099052;27;45359;-76
2023/10/12 01:47:44;;;;;;;;;7.67;7.00;;;;;22.47;46.28;100490.91;5098433;27;45309;-76
2023/10/12 01:50:10;;;;;;;;;7.33;7.00;;;;;22.29;46.05;100469.06;5097711;27;45981;-76
2023/10/12 01:52:36;;;;;;;;;8.00;8.00;;;;;22.43;46.36;100496.28;5097980;27;45432;-76
2023/10/12 01:55:15;;;;;;;;;6.33;6.00;;;;;22.44;46.12;100498.06;5098164;27;45361;-75
2023/10/12 01:57:47;;;;;;;;;8.00;7.33;;;;;22.37;46.67;100490.22;5098351;27;45638;-76
2023/10/12 02:00:15;;;;;;;;;14.33;9.67;;;;;22.11;46.98;100451.63;5097375;27;46203;-76
2023/10/12 02:02:50;;;;;;;;;7.33;7.00;;;;;22.28;47.55;100501.88;5097709;27;45511;-76
2023/10/12 02:05:24;;;;;;;;;9.00;8.00;;;;;22.22;48.03;100501.97;5097066;27;45433;-76
2023/10/12 02:07:52;;;;;;;;;8.00;7.00;;;;;22.09;47.81;100487.16;5098472;27;45330;-76
2023/10/12 02:10:18;;;;;;;;;11.67;9.67;;;;;21.91;48.68;100473.28;5097367;27;45510;-75
2023/10/12 02:12:46;;;;;;;;;6.67;6.67;;;;;21.93;48.94;100487.44;5098005;27;45417;-76
2023/10/12 02:15:15;;;;;;;;;7.67;7.00;;;;;21.69;48.35;100455.97;5097916;27;45519;-76
2023/10/12 02:17:42;;;;;;;;;9.00;9.00;;;;;21.89;48.51;100492.84;5097217;27;45301;-76
2023/10/12 02:20:11;;;;;;;;;11.00;8.67;;;;;21.80;49.61;100489.41;5097441;27;45582;-76
2023/10/12 02:22:37;;;;;;;;;9.00;7.67;;;;;21.79;49.25;100500.97;5097147;27;45523;-76
2023/10/12 02:27:42;;;;;;;;;8.00;7.67;;;;;21.73;48.65;100492.22;5057855;28;45310;-76
2023/10/12 02:30:13;;;;;;;;;7.00;6.67;;;;;21.73;47.99;100486.91;5090143;27;45396;-75
2023/10/12 02:32:50;;;;;;;;;7.00;6.33;;;;;21.82;48.43;100503.56;5097428;27;46138;-76
2023/10/12 02:35:19;;;;;;;;;11.00;8.67;;;;;21.79;49.16;100495.66;5097030;27;45400;-75
2023/10/12 02:37:46;;;;;;;;;9.25;8.75;;;;;21.73;49.04;100490.44;5097854;27;45389;-76
2023/10/12 02:40:11;;;;;;;;;11.33;8.33;;;;;21.68;49.23;100491.41;5096900;27;45489;-75
2023/10/12 02:42:45;;;;;;;;;9.50;9.00;;;;;21.62;49.86;100490.59;5097580;27;45410;-76
2023/10/12 02:47:40;;;;;;;;;8.33;8.33;;;;;21.57;49.85;100492.47;5097993;27;45328;-75
2023/10/12 02:52:37;;;;;;;;;2.67;2.00;;;;;21.42;50.79;100498.00;5098626;27;45309;-76
2023/10/12 02:57:59;;;;;;;;;14.67;12.67;;;;;21.26;51.99;100500.88;5098100;27;45168;-75
2023/10/12 03:00:35;;;;;;;;;11.67;9.33;;;;;21.13;51.80;100498.41;5099136;27;45598;-74
2023/10/12 03:05:47;;;;;;;;;8.33;7.67;;;;;21.02;52.53;100499.44;5097702;27;45444;-75
2023/10/12 03:08:14;;;;;;;;;12.00;10.00;;;;;20.94;52.69;100496.03;5097079;27;45293;-75
2023/10/12 03:13:36;;;;;;;;;10.00;8.33;;;;;20.86;52.81;100504.09;5066669;27;45500;-74
2023/10/12 03:16:11;;;;;;;;;10.00;7.00;;;;;20.68;53.24;100485.75;5097438;27;45417;-74
2023/10/12 03:18:36;;;;;;;;;9.67;8.33;;;;;20.72;52.89;100495.44;5095557;27;45523;-73
2023/10/12 03:21:11;;;;;;;;;11.33;10.67;;;;;20.75;53.69;100510.44;5096991;27;45316;-74
2023/10/12 03:23:40;;;;;;;;;10.33;9.67;;;;;20.70;53.36;100517.59;5096556;27;45243;-75
2023/10/12 03:26:25;;;;;;;;;9.33;9.33;;;;;20.66;53.76;100506.13;5097196;27;45530;-74
2023/10/12 03:36:58;;;;;;;;;9.33;8.33;;;;;20.48;54.75;100527.56;5096987;27;45378;-75
2023/10/12 03:44:41;;;;;;;;;8.67;7.00;;;;;20.36;54.42;100507.34;5096032;27;45594;-77
2023/10/12 03:47:23;;;;;;;;;11.00;10.67;;;;;20.33;54.63;100508.22;5096775;27;45504;-74
2023/10/12 03:52:39;;;;;;;;;6.00;6.00;;;;;20.24;55.37;100508.34;5097127;27;45458;-76
2023/10/12 03:57:45;;;;;;;;;9.67;9.00;;;;;20.20;55.54;100504.84;5096626;27;45484;-76
2023/10/12 04:08:00;;;;;;;;;10.33;8.67;;;;;20.09;55.10;100511.13;5096777;27;45524;-77
2023/10/12 04:19:03;;;;;;;;;10.00;9.50;;;;;20.01;55.46;100522.69;5095245;27;45473;-77
2023/10/12 04:21:40;;;;;;;;;10.33;9.67;;;;;20.02;55.67;100521.81;5096406;27;45547;-76
2023/10/12 04:27:00;;;;;;;;;8.75;8.75;;;;;19.95;55.21;100521.88;5095562;27;45467;-77
2023/10/12 04:29:30;;;;;;;;;8.25;7.25;;;;;19.62;55.29;100461.16;5095668;27;45506;-76
2023/10/12 04:32:15;;;;;;;;;9.75;8.00;;;;;20.00;55.13;100517.41;5094942;27;45466;-73
2023/10/12 04:34:49;;;;;;;;;10.75;9.50;;;;;19.98;55.85;100521.84;5094644;27;45487;-76
2023/10/12 04:37:22;;;;;;;;;9.50;9.50;;;;;19.96;55.17;100515.69;5098906;27;45494;-77
2023/10/12 04:39:56;;;;;;;;;7.00;7.00;;;;;19.95;54.93;100516.56;5098598;27;45530;-76
2023/10/12 04:42:26;;;;;;;;;10.67;10.33;;;;;19.83;55.14;100497.22;5098931;27;45561;-76
2023/10/12 04:47:36;;;;;;;;;9.25;9.00;;;;;19.97;54.58;100526.25;5071844;27;45551;-77
2023/10/12 04:50:05;;;;;;;;;9.25;8.25;;;;;19.94;54.59;100520.13;5098172;27;45393;-76
2023/10/12 04:52:36;;;;;;;;;10.50;9.25;;;;;19.96;54.59;100529.81;5099823;27;45539;-75
2023/10/12 04:55:20;;;;;;;;;10.75;10.25;;;;;19.90;55.22;100519.28;5098814;27;45450;-76
2023/10/12 04:57:49;;;;;;;;;50.50;41.25;;;;;19.64;55.06;100474.41;5070862;27;45401;-77
2023/10/12 05:00:24;;;;;;;;;11.00;9.25;;;;;19.91;54.99;100523.66;5098747;27;45217;-76
2023/10/12 05:07:57;;;;;;;;;8.25;8.25;;;;;19.84;55.28;100528.16;5099037;27;45480;-76
2023/10/12 05:10:27;;;;;;;;;9.75;9.25;;;;;19.81;55.29;100519.34;5069124;27;45456;-76
2023/10/12 05:12:57;;;;;;;;;10.00;8.67;;;;;19.79;55.36;100529.94;5098834;27;45554;-77
2023/10/12 05:15:36;;;;;;;;;11.00;10.00;;;;;19.60;55.16;100496.53;5098512;27;45675;-76
2023/10/12 05:18:03;;;;;;;;;14.00;11.00;;;;;19.78;55.29;100528.22;5066888;27;45641;-76
2023/10/12 05:20:28;;;;;;;;;8.50;8.25;;;;;19.73;54.34;100513.22;5098593;27;45541;-76
2023/10/12 05:22:54;;;;;;;;;9.75;8.50;;;;;19.81;53.60;100519.34;5097764;27;45504;-77
2023/10/12 05:25:19;;;;;;;;;10.00;9.00;;;;;19.84;53.70;100525.50;5098852;27;45614;-76
2023/10/12 05:28:05;;;;;;;;;10.50;10.25;;;;;19.83;54.44;100528.16;5098080;27;45465;-76
2023/10/12 05:30:31;;;;;;;;;10.00;9.00;;;;;19.68;54.10;100502.63;5074562;28;45496;-76
2023/10/12 05:33:04;;;;;;;;;12.75;10.75;;;;;19.72;54.85;100519.44;5093119;27;45501;-76
2023/10/12 05:38:17;;;;;;;;;10.25;10.25;;;;;19.81;54.40;100536.13;5069386;27;45474;-76
2023/10/12 05:40:53;;;;;;;;;10.00;8.75;;;;;19.81;54.32;100545.84;5097210;27;45323;-75
2023/10/12 05:43:22;;;;;;;;;9.00;8.67;;;;;19.82;54.41;100542.31;5098398;27;45571;-75
2023/10/12 05:45:50;;;;;;;;;7.25;6.50;;;;;19.60;53.82;100510.66;5097491;27;46418;-76
2023/10/12 05:48:16;;;;;;;;;12.50;10.50;;;;;19.81;53.52;100537.91;5098193;27;45361;-75
2023/10/12 05:50:42;;;;;;;;;9.75;8.00;;;;;19.83;53.77;100550.25;5097782;27;45302;-76
2023/10/12 05:53:08;;;;;;;;;12.25;11.50;;;;;19.87;53.77;100548.44;5098209;27;45354;-76
2023/10/12 05:55:34;;;;;;;;;13.25;12.75;;;;;19.65;53.69;100506.16;5097707;27;46135;-76
2023/10/12 05:58:11;;;;;;;;;12.75;11.50;;;;;19.89;53.42;100543.13;5096600;27;45430;-76
2023/10/12 06:00:41;;;;;;;;;10.75;10.00;;;;;19.76;53.07;100530.00;5087125;27;45145;-76
2023/10/12 06:03:10;;;;;;;;;11.00;9.75;;;;;19.86;53.47;100550.22;5097881;27;45512;-76
2023/10/12 06:05:36;;;;;;;;;7.00;7.00;;;;;19.95;52.56;100569.59;5098057;27;46133;-76
2023/10/12 06:08:06;;;;;;;;;7.00;6.33;;;;;20.01;51.29;100557.16;5098638;27;45482;-75
2023/10/12 06:10:40;;;;;;;;;9.67;6.33;;;;;20.06;51.54;100552.69;5098098;27;45352;-75
2023/10/12 06:13:07;;;;;;;;;8.75;8.50;;;;;20.13;51.43;100550.00;5097785;27;45476;-76
2023/10/12 06:15:39;;;;;;;;;9.67;8.67;;;;;19.80;51.71;100488.44;5097815;27;46059;-76
2023/10/12 06:18:05;;;;;;;;;7.67;7.67;;;;;20.19;50.95;100558.78;5097732;27;45418;-75
2023/10/12 06:20:36;;;;;;;;;7.33;6.67;;;;;20.29;50.82;100554.25;5097468;27;45475;-77
2023/10/12 06:23:08;;;;;;;;;12.00;11.00;;;;;20.18;50.98;100514.59;5086834;27;45525;-76
2023/10/12 06:25:39;;;;;;;;;9.33;8.67;;;;;20.28;50.49;100512.72;5079228;27;45611;-75
2023/10/12 06:28:07;;;;;;;;;8.67;8.33;;;;;20.24;50.44;100509.22;5079824;27;45575;-75
2023/10/12 06:30:34;;;;;;;;;6.67;6.00;;;;;20.54;50.04;100554.88;5077308;27;45437;-74
2023/10/12 06:33:02;;;;;;;;;8.33;7.00;;;;;20.47;49.98;100531.94;5077972;27;45425;-75
2023/10/12 06:35:28;;;;;;;;;6.00;6.00;;;;;20.68;49.55;100556.56;5080717;27;46137;-75
2023/10/12 06:45:47;;;;;;;;;6.67;6.00;;;;;21.14;48.41;100561.28;5077719;27;45915;-75
2023/10/12 06:51:07;;;;;;;;;7.00;7.00;;;;;21.30;48.19;100565.47;5076328;27;45457;-74
2023/10/12 06:53:34;;;;;;;;;6.00;6.00;;;;;21.29;48.26;100550.47;5079879;27;45515;-75
2023/10/12 06:56:50;;;;;;;;;6.67;6.33;;;;;21.41;47.99;100565.34;5076650;27;45542;-75
2023/10/12 06:59:21;;;;;;;;;5.67;5.33;;;;;21.44;48.24;100571.50;5071605;27;45574;-74
2023/10/12 07:04:37;;;;;;;;;8.67;6.67;;;;;21.65;47.31;100586.28;5076317;27;45551;-70
2023/10/12 07:07:11;;;;;;;;;7.75;6.75;;;;;21.80;48.35;100597.56;5079349;27;45366;-71
2023/10/12 07:09:40;;;;;;;;;6.67;6.00;;;;;21.89;47.06;100585.94;5076995;27;45540;-72
2023/10/12 07:12:17;;;;;;;;;5.00;5.00;;;;;21.99;46.96;100591.06;5078310;27;45410;-74
2023/10/12 07:14:46;;;;;;;;;5.00;4.33;;;;;21.94;47.15;100563.66;5077085;27;45391;-74
2023/10/12 07:17:12;;;;;;;;;8.67;6.33;;;;;22.25;46.33;100603.09;5092976;27;46041;-73
2023/10/12 07:19:41;;;;;;;;;6.33;6.00;;;;;22.28;46.03;100597.69;5097387;27;45770;-73
2023/10/12 07:22:15;;;;;;;;;6.00;5.00;;;;;22.33;46.07;100577.22;5096800;27;45333;-73
2023/10/12 07:24:42;;;;;;;;;7.33;6.33;;;;;22.58;45.61;100596.28;5096779;27;45536;-74
2023/10/12 07:27:11;;;;;;;;;7.67;6.00;;;;;22.62;44.41;100567.78;5091612;27;45496;-76
2023/10/12 07:29:44;;;;;;;;;5.00;5.00;;;;;23.06;44.13;100598.03;5077396;27;45309;-73
2023/10/12 07:32:38;;;;;;;;;5.67;5.67;;;;;23.23;43.85;100603.88;5076381;27;45349;-73
2023/10/12 07:35:35;;;;;;;;;5.00;5.00;;;;;23.34;43.66;100593.00;5078082;27;45476;-77
2023/10/12 07:37:54;;;;;;;;;5.00;5.00;;;;;23.69;44.18;100612.63;5076100;27;46056;-77
2023/10/12 07:40:22;;;;;;;;;7.00;6.00;;;;;25.23;42.18;100600.69;5076292;27;45525;-75
2023/10/12 07:42:48;;;;;;;;;8.00;7.00;;;;;27.31;38.97;100607.06;5076761;27;45567;-73
2023/10/12 07:45:15;;;;;;;;;6.00;6.00;;;;;28.71;35.39;100596.81;5076499;28;45380;-77
2023/10/12 07:47:42;;;;;;;;;4.00;4.00;;;;;29.61;33.80;100593.56;5076986;27;45488;-74
2023/10/12 07:50:10;;;;;;;;;6.33;5.33;;;;;30.43;32.48;100566.16;5076973;27;45217;-74
2023/10/12 07:52:46;;;;;;;;;6.67;5.00;;;;;31.53;30.70;100601.59;5081090;27;45444;-73
2023/10/12 07:55:13;;;;;;;;;7.00;6.00;;;;;32.30;30.89;100597.16;5091577;27;45631;-72
2023/10/12 07:57:41;;;;;;;;;8.00;6.33;;;;;33.05;29.50;100600.66;5078233;27;46088;-72
2023/10/12 08:16:04;;;;;;;;;7.33;5.00;;;;;37.03;24.67;100593.13;5078388;27;45483;-80
2023/10/12 08:24:02;;;;;;;;;6.00;5.33;;;;;38.15;24.05;100612.19;5099478;27;45413;-80
2023/10/12 08:30:02;;;;;;;;;7.00;7.00;;;;;38.50;23.58;100613.72;5099367;27;46060;-80
2023/10/12 08:37:18;;;;;;;;;5.00;4.33;;;;;39.32;22.66;100607.44;5099233;27;45506;-80
2023/10/12 08:45:00;;;;;;;;;6.67;6.33;;;;;39.73;22.48;100606.44;5099434;27;45683;-80
2023/10/12 08:52:32;;;;;;;;;6.00;6.00;;;;;39.83;22.62;100613.75;5098934;27;45574;-80
2023/10/12 08:55:03;;;;;;;;;6.33;6.00;;;;;39.94;21.81;100609.03;5099040;27;45437;-79
2023/10/12 08:57:56;;;;;;;;;6.00;6.00;;;;;39.99;21.68;100607.75;5098625;27;45614;-80
2023/10/12 09:03:06;;;;;;;;;4.00;4.00;;;;;39.82;21.89;100604.69;5098871;27;45429;-80
2023/10/12 09:05:33;;;;;;;;;5.33;4.33;;;;;39.65;21.93;100580.78;5098477;27;45512;-80
2023/10/12 09:10:54;;;;;;;;;5.33;5.00;;;;;39.59;22.35;100601.34;5098688;27;46032;-79
2023/10/12 09:13:22;;;;;;;;;8.00;8.00;;;;;39.45;22.54;100596.28;5098713;27;45585;-80
2023/10/12 09:15:56;;;;;;;;;7.00;5.33;;;;;39.34;22.49;100606.28;5072690;27;45564;-79
2023/10/12 09:18:29;;;;;;;;;6.33;4.33;;;;;39.16;22.93;100589.69;5059268;28;45386;-78
2023/10/12 09:31:13;;;;;;;;;12.00;10.67;;;;;38.74;23.73;100597.13;5058132;28;45933;-79
2023/10/12 09:33:47;;;;;;;;;7.67;7.33;;;;;38.54;22.80;100599.72;5059094;27;45474;-80
2023/10/12 09:36:14;;;;;;;;;9.67;8.67;;;;;38.37;23.81;100597.56;5097806;27;45476;-79
2023/10/12 09:38:40;;;;;;;;;6.67;6.33;;;;;38.24;23.96;100595.00;5098638;27;45417;-79
2023/10/12 09:41:09;;;;;;;;;5.00;4.67;;;;;38.18;23.59;100598.25;5098113;27;46141;-79
2023/10/12 09:43:40;;;;;;;;;5.00;5.00;;;;;38.12;24.06;100606.97;5097184;27;45481;-77
2023/10/12 09:46:09;;;;;;;;;8.00;7.00;;;;;38.09;24.05;100601.78;5098167;27;45587;-77
2023/10/12 09:48:40;;;;;;;;;7.00;6.33;;;;;38.06;23.90;100582.94;5098182;27;45292;-76
2023/10/12 09:51:10;;;;;;;;;5.67;5.67;;;;;37.93;23.77;100600.34;5097549;27;45531;-77
2023/10/12 09:53:43;;;;;;;;;5.00;4.00;;;;;38.01;24.08;100596.97;5097801;27;45376;-77
2023/10/12 09:56:18;;;;;;;;;7.00;6.67;;;;;38.01;24.50;100592.34;5098177;27;45435;-77
2023/10/12 09:59:29;;;;;;;;;5.33;5.33;;;;;38.15;24.40;100593.09;5097690;27;45350;-77
2023/10/12 10:07:24;;;;;;;;;5.00;5.00;;;;;38.15;24.23;100601.28;5098098;27;45357;-76
2023/10/12 10:09:54;;;;;;;;;4.00;4.00;;;;;37.95;24.35;100578.41;5058137;28;45347;-77
2023/10/12 10:12:22;;;;;;;;;4.67;4.67;;;;;37.96;24.35;100599.19;5088321;27;45397;-77
2023/10/12 10:15:00;;;;;;;;;7.00;6.33;;;;;37.86;24.41;100595.53;5097536;27;45558;-78
2023/10/12 10:17:36;;;;;;;;;6.00;6.00;;;;;37.93;24.33;100594.03;5097621;27;45528;-77
2023/10/12 10:20:19;;;;;;;;;4.67;4.67;;;;;37.96;24.49;100591.91;5097191;27;45510;-78
2023/10/12 10:22:44;;;;;;;;;5.67;5.00;;;;;37.70;24.58;100588.63;5097458;27;45554;-78
2023/10/12 10:25:17;;;;;;;;;4.67;4.67;;;;;37.38;24.99;100580.38;5091968;27;45485;-78
2023/10/12 10:27:42;;;;;;;;;5.67;4.00;;;;;37.24;25.08;100580.66;5078719;27;45551;-76
2023/10/12 10:30:36;;;;;;;;;8.00;6.33;;;;;37.25;25.62;100579.66;5079744;27;45407;-76
2023/10/12 10:33:17;;;;;;;;;5.00;5.00;;;;;37.20;25.73;100583.63;5076059;28;46431;-76
2023/10/12 10:36:17;;;;;;;;;5.67;5.00;;;;;37.19;25.22;100587.34;5077588;27;45467;-77
2023/10/12 10:39:04;;;;;;;;;7.33;6.00;;;;;36.96;25.58;100583.72;5081857;27;45589;-78
2023/10/12 10:44:45;;;;;;;;;8.33;7.67;;;;;36.53;26.28;100581.69;5067493;28;45728;-79
2023/10/12 10:47:15;;;;;;;;;7.33;7.00;;;;;36.42;25.87;100578.94;5055479;28;45521;-77
2023/10/12 10:49:45;;;;;;;;;8.33;7.67;;;;;36.21;26.58;100557.88;5065966;27;45583;-77
2023/10/12 10:52:14;;;;;;;;;7.00;6.00;;;;;36.28;26.76;100574.56;5078361;27;45671;-77
2023/10/12 10:57:37;;;;;;;;;5.00;5.00;;;;;36.11;26.85;100569.53;5067282;27;45593;-75
2023/10/12 11:00:15;;;;;;;;;6.33;6.33;;;;;36.06;26.83;100569.03;5099539;27;45302;-78
2023/10/12 11:02:47;;;;;;;;;6.67;6.00;;;;;36.00;26.75;100564.94;5081094;27;45516;-77
2023/10/12 11:05:19;;;;;;;;;7.00;6.00;;;;;35.99;26.65;100553.19;5084136;27;45935;-77
2023/10/12 11:07:50;;;;;;;;;8.67;8.00;;;;;35.80;25.98;100534.69;5079708;27;45568;-78
2023/10/12 11:10:19;;;;;;;;;10.00;7.67;;;;;35.61;26.74;100554.19;5098211;27;45461;-78
2023/10/12 11:12:45;;;;;;;;;11.33;11.00;;;;;35.51;26.89;100546.88;5097078;27;45533;-78
2023/10/12 11:15:11;;;;;;;;;8.33;8.00;;;;;35.35;26.70;100542.56;5097743;27;45355;-77
2023/10/12 11:18:00;;;;;;;;;8.33;7.67;;;;;35.40;26.19;100534.97;5096704;27;45438;-78
2023/10/12 11:20:35;;;;;;;;;10.67;10.33;;;;;35.42;26.82;100537.56;5099571;27;45448;-78
2023/10/12 11:23:04;;;;;;;;;12.33;10.67;;;;;35.38;26.90;100531.50;5101694;27;45578;-77
2023/10/12 11:25:29;;;;;;;;;7.67;6.33;;;;;35.26;27.16;100526.97;5102981;27;45480;-77
2023/10/12 11:27:55;;;;;;;;;9.00;6.67;;;;;35.10;27.52;100521.78;5102749;27;45376;-78
2023/10/12 11:30:31;;;;;;;;;6.00;5.00;;;;;35.06;27.87;100514.84;5103790;27;45579;-71
2023/10/12 11:33:00;;;;;;;;;8.00;7.00;;;;;35.02;27.05;100506.06;5097311;27;45466;-75
2023/10/12 11:35:43;;;;;;;;;7.00;7.00;;;;;34.92;27.19;100504.09;5096510;27;46211;-71
2023/10/12 11:38:19;;;;;;;;;11.33;10.00;;;;;34.66;27.29;100504.19;5096600;27;45553;-75
2023/10/12 11:40:52;;;;;;;;;6.67;5.00;;;;;34.61;27.58;100509.88;5096295;27;45495;-78
2023/10/12 11:43:19;;;;;;;;;8.67;8.33;;;;;34.54;28.04;100497.75;5097915;27;45597;-78
2023/10/12 11:46:01;;;;;;;;;13.67;13.00;;;;;34.49;28.66;100513.47;5099395;27;46392;-73
2023/10/12 11:48:29;;;;;;;;;5.67;5.00;;;;;34.38;28.08;100508.81;5100244;27;45341;-77
2023/10/12 11:50:56;;;;;;;;;2.00;2.00;;;;;34.35;28.33;100497.31;5100349;27;45405;-77
2023/10/12 11:53:24;;;;;;;;;8.00;6.67;;;;;34.27;28.15;100489.72;5100875;27;45353;-75
2023/10/12 11:56:02;;;;;;;;;9.00;8.33;;;;;34.25;27.71;100495.25;5100292;27;45523;-78
2023/10/12 11:58:27;;;;;;;;;8.00;6.67;;;;;34.06;28.45;100459.50;5099944;27;45644;-79
2023/10/12 12:00:55;;;;;;;;;6.67;4.33;;;;;34.07;29.01;100477.53;5100289;27;45626;-78
2023/10/12 12:03:21;;;;;;;;;8.00;6.33;;;;;34.16;28.37;100490.47;5098818;27;45639;-78
2023/10/12 12:05:52;;;;;;;;;8.67;8.67;;;;;34.14;27.90;100484.31;5098781;27;46612;-78
2023/10/12 12:08:18;;;;;;;;;6.33;4.67;;;;;34.01;28.67;100454.44;5099572;27;45412;-78
2023/10/12 12:13:16;;;;;;;;;7.67;5.67;;;;;34.16;29.19;100465.19;5099964;27;45455;-78
2023/10/12 12:15:46;;;;;;;;;6.33;6.33;;;;;34.14;28.30;100469.81;5099803;27;46211;-79
2023/10/12 12:18:21;;;;;;;;;10.67;8.00;;;;;34.14;28.63;100468.03;5099292;27;45414;-78
2023/10/12 12:20:50;;;;;;;;;9.00;8.67;;;;;34.07;29.38;100447.72;5099681;27;45510;-78
2023/10/12 12:23:17;;;;;;;;;10.33;8.33;;;;;33.98;28.51;100442.94;5098738;27;45325;-78
2023/10/12 12:25:42;;;;;;;;;4.33;4.00;;;;;34.10;27.89;100463.75;5098757;27;46087;-78
2023/10/12 12:28:32;;;;;;;;;5.00;5.00;;;;;34.17;27.83;100466.94;5099296;27;45467;-78
2023/10/12 12:31:00;;;;;;;;;6.67;6.67;;;;;34.15;28.58;100447.22;5099602;27;45479;-78
2023/10/12 12:33:29;;;;;;;;;5.67;4.67;;;;;34.26;28.10;100461.75;5099020;27;45555;-73
2023/10/12 12:35:59;;;;;;;;;6.00;5.00;;;;;34.18;28.50;100458.72;5099710;27;45393;-78
2023/10/12 12:40:52;;;;;;;;;6.67;5.00;;;;;34.14;29.14;100448.13;5099275;27;45495;-76
2023/10/12 12:43:18;;;;;;;;;4.00;4.00;;;;;34.02;29.71;100423.66;5098959;27;45609;-78
2023/10/12 12:45:44;;;;;;;;;4.00;4.00;;;;;34.20;29.64;100451.34;5099204;27;46234;-76
2023/10/12 12:48:09;;;;;;;;;4.00;4.00;;;;;34.33;29.75;100450.47;5098407;27;45495;-78
2023/10/12 12:50:35;;;;;;;;;7.67;7.67;;;;;34.35;29.53;100432.22;5099043;27;45492;-78
2023/10/12 12:53:00;;;;;;;;;5.67;5.67;;;;;34.46;30.33;100435.03;5098839;27;45455;-78
2023/10/12 12:55:28;;;;;;;;;7.00;6.33;;;;;34.41;30.10;100412.81;5098566;27;46033;-78
2023/10/12 12:57:58;;;;;;;;;7.67;6.00;;;;;34.53;30.13;100430.03;5099166;27;45770;-78
2023/10/12 13:00:25;;;;;;;;;58.50;41.75;;;;;34.58;29.53;100427.84;5099003;27;45434;-78
2023/10/12 13:02:51;;;;;;;;;12.67;12.00;;;;;34.62;29.67;100429.34;5098296;27;45515;-78
2023/10/12 13:05:16;;;;;;;;;7.67;6.67;;;;;34.63;30.06;100421.09;5090162;27;45471;-79
2023/10/12 13:07:45;;;;;;;;;10.33;8.33;;;;;34.59;29.75;100418.75;5092568;27;45586;-78
2023/10/12 13:10:12;;;;;;;;;6.00;4.67;;;;;34.55;29.66;100404.53;5086547;27;45347;-75
2023/10/12 13:12:43;;;;;;;;;5.67;5.00;;;;;34.71;29.43;100417.00;5086163;27;45643;-73
2023/10/12 13:15:10;;;;;;;;;4.00;4.00;;;;;34.72;30.33;100402.44;5082312;27;46155;-77
2023/10/12 13:17:37;;;;;;;;;7.67;5.67;;;;;34.63;30.22;100391.28;5077809;27;45468;-77
2023/10/12 13:20:03;;;;;;;;;6.00;5.00;;;;;34.75;30.46;100418.53;5083827;27;45374;-77
2023/10/12 13:22:29;;;;;;;;;4.00;4.00;;;;;34.75;28.65;100408.53;5084045;27;45416;-77
2023/10/12 13:24:56;;;;;;;;;5.33;5.00;;;;;34.60;28.75;100377.94;5080494;27;45385;-77
2023/10/12 13:27:32;;;;;;;;;8.00;7.00;;;;;34.76;29.19;100406.66;5083931;27;45543;-72
2023/10/12 13:30:09;;;;;;;;;5.00;4.33;;;;;34.69;29.31;100386.41;5082694;27;45472;-77
2023/10/12 13:32:35;;;;;;;;;4.67;4.33;;;;;34.76;28.69;100393.09;5082621;27;45392;-76
2023/10/12 13:35:17;;;;;;;;;4.00;4.00;;;;;34.72;28.95;100402.44;5077980;27;45338;-76
2023/10/12 13:37:44;;;;;;;;;8.00;7.67;;;;;34.81;29.25;100397.22;5082846;27;45553;-77
2023/10/12 13:40:15;;;;;;;;;8.67;7.00;;;;;34.88;29.31;100403.06;5090781;27;45301;-77
2023/10/12 13:42:41;;;;;;;;;6.00;5.33;;;;;34.75;28.17;100396.81;5097770;27;45380;-77
2023/10/12 13:45:12;;;;;;;;;4.33;4.33;;;;;34.70;27.63;100398.97;5088398;27;45686;-76
2023/10/12 13:47:40;;;;;;;;;3.00;3.00;;;;;34.75;27.76;100403.09;5085498;27;45265;-78
2023/10/12 13:50:10;;;;;;;;;5.00;5.00;;;;;34.78;27.86;100399.28;5081945;27;45428;-76
2023/10/12 13:52:37;;;;;;;;;6.33;6.33;;;;;34.78;28.68;100397.47;5083561;27;45630;-76
2023/10/12 13:55:12;;;;;;;;;6.67;6.00;;;;;34.78;28.84;100385.72;5084410;27;45470;-76
2023/10/12 13:57:50;;;;;;;;;5.67;4.33;;;;;34.74;28.93;100389.63;5083904;27;45271;-77
2023/10/12 14:00:27;;;;;;;;;7.00;6.00;;;;;34.80;29.46;100386.50;5088792;27;46065;-77
2023/10/12 14:02:57;;;;;;;;;6.67;5.67;;;;;34.77;29.00;100384.00;5097633;27;45475;-74
2023/10/12 14:05:33;;;;;;;;;5.00;5.00;;;;;34.77;28.72;100378.56;5087837;27;46275;-77
2023/10/12 14:07:59;;;;;;;;;4.33;4.33;;;;;34.75;28.89;100385.97;5093256;27;45505;-78
2023/10/12 14:10:29;;;;;;;;;4.33;4.33;;;;;34.70;29.21;100380.00;5097428;27;45449;-78
2023/10/12 14:12:56;;;;;;;;;4.00;3.00;;;;;34.66;28.53;100376.66;5097852;27;45432;-77
2023/10/12 14:15:29;;;;;;;;;4.67;4.67;;;;;34.66;28.64;100379.38;5097554;27;45490;-77
2023/10/12 14:17:56;;;;;;;;;4.00;3.33;;;;;34.69;28.35;100371.00;5097433;27;45491;-77
2023/10/12 14:20:28;;;;;;;;;4.00;4.00;;;;;34.71;29.18;100368.19;5088328;27;45366;-77
2023/10/12 14:22:57;;;;;;;;;7.00;5.33;;;;;34.64;28.54;100356.88;5082497;27;45505;-76